TimeCDT,TemperatureF,Dew PointF,Humidity,Sea Level PressureIn,VisibilityMPH,Wind Direction,Wind SpeedMPH,Gust SpeedMPH,PrecipitationIn,Events,Conditions,WindDirDegrees,DateUTC
12:57 AM,62.1,55.0,78,29.89,10.0,ESE,8.1,-,N/A,,Clear,120,2013-09-24 05:57:00
1:57 AM,63.0,55.0,75,29.88,10.0,ESE,6.9,-,N/A,,Overcast,120,2013-09-24 06:57:00
2:57 AM,62.1,55.0,78,29.88,10.0,SE,6.9,-,0.00,Rain,Light Rain,140,2013-09-24 07:57:00
3:11 AM,60.8,55.4,82,29.92,10.0,SE,8.1,-,0.00,Thunderstorm,Scattered Clouds,140,2013-09-24 08:11:00
3:26 AM,62.6,55.4,77,29.92,10.0,SE,6.9,-,0.00,,Clear,140,2013-09-24 08:26:00
3:57 AM,62.1,55.9,80,29.87,10.0,SE,9.2,-,0.00,Rain,Light Rain,140,2013-09-24 08:57:00
4:57 AM,61.0,54.0,78,29.87,10.0,SSE,6.9,-,0.00,,Clear,150,2013-09-24 09:57:00
5:57 AM,60.1,54.0,80,29.87,10.0,SSE,5.8,-,N/A,,Clear,150,2013-09-24 10:57:00
6:57 AM,59.0,54.0,83,29.87,10.0,SSE,5.8,-,N/A,,Clear,160,2013-09-24 11:57:00
7:57 AM,62.1,55.0,78,29.88,10.0,South,3.5,-,N/A,,Clear,180,2013-09-24 12:57:00
8:57 AM,66.9,55.9,68,29.88,10.0,WSW,13.8,-,N/A,,Clear,240,2013-09-24 13:57:00
9:57 AM,69.1,54.0,58,29.87,10.0,West,12.7,-,N/A,,Clear,260,2013-09-24 14:57:00
10:57 AM,72.0,53.1,51,29.88,10.0,WSW,12.7,-,N/A,,Clear,240,2013-09-24 15:57:00
11:57 AM,73.0,53.1,49,29.87,10.0,West,13.8,20.7,N/A,,Clear,260,2013-09-24 16:57:00
12:57 PM,75.0,54.0,48,29.87,10.0,West,15.0,-,N/A,,Clear,270,2013-09-24 17:57:00
1:57 PM,75.0,54.0,48,29.86,10.0,West,15.0,20.7,N/A,,Clear,260,2013-09-24 18:57:00
2:57 PM,75.9,55.0,48,29.85,10.0,WSW,12.7,-,N/A,,Partly Cloudy,250,2013-09-24 19:57:00
3:57 PM,73.9,55.9,53,29.86,10.0,WNW,10.4,-,N/A,,Mostly Cloudy,300,2013-09-24 20:57:00
4:57 PM,73.9,55.0,52,29.86,10.0,West,15.0,-,N/A,,Overcast,280,2013-09-24 21:57:00
5:57 PM,73.9,55.9,53,29.86,10.0,West,9.2,-,N/A,,Mostly Cloudy,280,2013-09-24 22:57:00
6:57 PM,70.0,55.9,61,29.86,10.0,West,5.8,-,N/A,,Clear,270,2013-09-24 23:57:00
7:57 PM,68.0,55.9,65,29.86,10.0,WSW,4.6,-,N/A,,Clear,250,2013-09-25 00:57:00
8:57 PM,66.9,57.0,70,29.86,10.0,West,8.1,-,N/A,,Overcast,270,2013-09-25 01:57:00
10:57 PM,63.0,55.9,78,29.86,10.0,West,3.5,-,N/A,,Clear,270,2013-09-25 03:57:00
11:57 PM,62.1,55.9,80,29.86,10.0,West,4.6,-,N/A,,Clear,280,2013-09-25 04:57:00